Time;durP1;ratioP1;P1;durP2;ratioP2;P2;SDS_P1;SDS_P2;PMS_P1;PMS_P2;Temp;Humidity;BMP_temperature;BMP_pressure;BME280_temperature;BME280_humidity;BME280_pressure;Samples;Min_cycle;Max_cycle;Signal;HPM_P1;HPM_P2
2023/06/23 00:00:13;;;;;;;3.33;1.83;;;23.00;99.90;;;;;;5072401;28;20440;-72
2023/06/23 00:02:41;;;;;;;1.93;1.70;;;22.90;99.90;;;;;;5072208;28;20890;-72
2023/06/23 00:05:08;;;;;;;2.20;1.50;;;23.00;99.90;;;;;;5072340;28;20472;-72
2023/06/23 00:07:35;;;;;;;1.97;1.47;;;23.20;99.90;;;;;;5056683;28;20815;-72
2023/06/23 00:10:05;;;;;;;1.67;1.57;;;23.10;99.90;;;;;;5032262;28;20412;-72
2023/06/23 00:12:34;;;;;;;1.50;1.40;;;23.10;99.90;;;;;;5016424;28;20939;-73
2023/06/23 00:15:00;;;;;;;2.80;1.67;;;22.90;99.90;;;;;;5032316;28;20410;-73
2023/06/23 00:17:26;;;;;;;1.83;1.20;;;22.90;99.90;;;;;;5062474;28;20416;-73
2023/06/23 00:19:52;;;;;;;2.20;1.53;;;22.80;99.90;;;;;;5070624;28;20966;-73
2023/06/23 00:22:17;;;;;;;2.40;1.30;;;22.80;99.90;;;;;;5055887;28;20659;-73
2023/06/23 00:24:43;;;;;;;1.73;1.30;;;22.80;99.90;;;;;;5055789;28;20167;-73
2023/06/23 00:27:08;;;;;;;2.03;1.77;;;22.70;99.90;;;;;;5055870;28;20166;-73
2023/06/23 00:29:34;;;;;;;1.73;1.63;;;22.80;99.90;;;;;;5037785;28;20177;-72
2023/06/23 00:31:59;;;;;;;2.37;1.70;;;22.80;99.90;;;;;;5055428;28;20177;-73
2023/06/23 00:34:25;;;;;;;1.70;1.47;;;22.80;99.90;;;;;;5055784;28;20171;-72
2023/06/23 00:36:51;;;;;;;2.53;1.73;;;22.80;99.90;;;;;;5055459;28;20646;-72
2023/06/23 00:39:16;;;;;;;2.10;1.90;;;22.80;99.90;;;;;;5044306;28;20598;-72
2023/06/23 00:41:42;;;;;;;2.20;2.00;;;22.70;99.90;;;;;;5035786;28;20170;-73
2023/06/23 00:44:09;;;;;;;2.30;1.80;;;22.60;99.90;;;;;;5035642;28;20174;-72
2023/06/23 00:46:43;;;;;;;2.63;1.53;;;22.50;99.90;;;;;;5054954;28;20356;-72
2023/06/23 00:49:09;;;;;;;2.17;1.63;;;22.40;99.90;;;;;;5076000;28;20473;-72
2023/06/23 00:51:35;;;;;;;4.03;1.70;;;22.40;99.90;;;;;;5075536;28;20412;-72
2023/06/23 00:54:02;;;;;;;1.80;1.60;;;22.40;99.90;;;;;;5057059;28;20458;-72
2023/06/23 00:56:30;;;;;;;1.87;1.73;;;22.60;99.90;;;;;;5075143;28;20733;-72
2023/06/23 00:58:56;;;;;;;2.57;1.90;;;22.70;99.90;;;;;;5074930;28;20488;-72
2023/06/23 01:01:22;;;;;;;1.60;1.40;;;22.30;99.90;;;;;;5075012;28;20411;-72
2023/06/23 01:03:48;;;;;;;2.40;1.83;;;22.30;99.90;;;;;;5075476;28;20845;-72
2023/06/23 01:06:38;;;;;;;2.77;2.00;;;22.30;99.90;;;;;;5074865;28;20420;-72
2023/06/23 01:09:20;;;;;;;2.97;2.40;;;22.50;99.90;;;;;;5074699;28;20170;-72
2023/06/23 01:12:02;;;;;;;4.20;2.63;;;22.20;99.90;;;;;;5075267;28;20389;-72
2023/06/23 01:14:36;;;;;;;1.90;1.80;;;22.30;99.90;;;;;;5074884;28;20442;-72
2023/06/23 01:17:33;;;;;;;2.43;2.23;;;22.10;99.90;;;;;;5074749;28;20435;-72
2023/06/23 01:20:21;;;;;;;2.87;2.17;;;22.10;99.90;;;;;;5074966;28;20424;-72
2023/06/23 01:22:55;;;;;;;2.40;2.20;;;22.00;99.90;;;;;;5075052;28;20381;-73
2023/06/23 01:25:33;;;;;;;3.10;2.30;;;21.90;99.90;;;;;;5074968;28;20423;-73
2023/06/23 01:28:31;;;;;;;2.50;2.30;;;21.40;99.90;;;;;;5075044;28;20383;-73
2023/06/23 01:31:00;;;;;;;2.77;2.57;;;21.20;99.90;;;;;;5055755;28;20438;-73
2023/06/23 01:33:30;;;;;;;2.50;2.30;;;21.10;99.90;;;;;;5074696;28;20413;-73
2023/06/23 01:36:11;;;;;;;3.23;2.93;;;20.60;99.90;;;;;;5074566;28;20507;-73
2023/06/23 01:38:40;;;;;;;2.60;2.40;;;20.40;99.90;;;;;;5074608;28;20484;-73
2023/06/23 01:41:16;;;;;;;5.13;3.40;;;20.00;99.90;;;;;;5075063;28;20427;-72
2023/06/23 01:43:47;;;;;;;4.27;3.87;;;19.70;99.90;;;;;;5074679;28;20396;-73
2023/06/23 01:46:16;;;;;;;4.47;4.07;;;19.30;99.90;;;;;;5074299;28;20493;-73
2023/06/23 01:48:46;;;;;;;5.00;4.47;;;19.20;99.90;;;;;;5074552;28;20419;-73
2023/06/23 01:51:12;;;;;;;4.73;3.90;;;19.30;99.90;;;;;;5074434;28;20487;-74
2023/06/23 01:53:38;;;;;;;5.70;5.20;;;19.50;99.90;;;;;;5074406;28;20559;-73
2023/06/23 01:56:06;;;;;;;5.00;4.53;;;19.50;99.90;;;;;;5074441;28;20186;-73
2023/06/23 01:58:38;;;;;;;5.20;4.70;;;19.50;99.90;;;;;;5074431;28;20400;-73
2023/06/23 02:01:06;;;;;;;5.20;4.70;;;19.40;99.90;;;;;;5074517;28;20408;-73
2023/06/23 02:03:32;;;;;;;4.50;4.10;;;19.40;99.90;;;;;;5074680;28;20802;-73
2023/06/23 02:05:59;;;;;;;5.23;4.80;;;19.40;99.90;;;;;;5074461;28;20858;-73
2023/06/23 02:08:26;;;;;;;4.30;3.90;;;19.50;99.90;;;;;;5074715;28;20400;-73
2023/06/23 02:10:54;;;;;;;8.23;4.40;;;19.30;99.90;;;;;;5074281;28;20400;-74
2023/06/23 02:13:22;;;;;;;4.20;3.80;;;19.40;99.90;;;;;;5045193;28;20489;-73
2023/06/23 02:15:49;;;;;;;4.90;4.50;;;19.50;99.90;;;;;;5041914;28;20428;-73
2023/06/23 02:18:17;;;;;;;3.70;3.40;;;19.60;99.90;;;;;;5074982;28;20486;-73
2023/06/23 02:20:44;;;;;;;2.90;2.70;;;19.50;99.90;;;;;;5075310;28;20432;-73
2023/06/23 02:23:11;;;;;;;3.47;3.17;;;19.30;99.90;;;;;;5075060;28;20427;-73
2023/06/23 02:25:39;;;;;;;3.57;2.97;;;19.30;99.90;;;;;;5043307;28;20437;-73
2023/06/23 02:28:07;;;;;;;3.63;2.80;;;19.20;99.90;;;;;;5055217;28;20400;-73
2023/06/23 02:30:33;;;;;;;3.00;2.80;;;19.30;99.90;;;;;;5037479;28;20939;-73
2023/06/23 02:32:59;;;;;;;3.47;3.17;;;19.20;99.90;;;;;;5037562;28;20428;-73
2023/06/23 02:35:25;;;;;;;2.93;2.70;;;19.20;99.90;;;;;;5056037;28;20785;-73
2023/06/23 02:37:55;;;;;;;3.47;3.17;;;19.20;99.90;;;;;;5055264;28;20228;-73
2023/06/23 02:40:25;;;;;;;3.17;2.90;;;19.30;99.90;;;;;;5055325;28;20222;-73
2023/06/23 02:43:00;;;;;;;4.00;3.40;;;19.10;99.90;;;;;;5036533;28;20998;-74
2023/06/23 02:45:30;;;;;;;3.50;3.20;;;19.10;99.90;;;;;;5036668;28;20862;-72
2023/06/23 02:47:57;;;;;;;4.33;3.93;;;19.20;99.90;;;;;;5065332;28;20390;-73
2023/06/23 02:50:33;;;;;;;4.20;3.90;;;19.20;99.90;;;;;;5053671;28;20872;-74
2023/06/23 02:53:04;;;;;;;4.27;3.90;;;19.30;99.90;;;;;;5038487;28;20448;-69
2023/06/23 02:55:31;;;;;;;5.17;4.77;;;19.20;99.90;;;;;;5054842;28;20420;-73
2023/06/23 02:58:00;;;;;;;5.40;4.90;;;19.20;99.90;;;;;;5053829;28;20405;-73
2023/06/23 03:00:29;;;;;;;6.10;4.97;;;19.00;99.90;;;;;;5035641;28;20436;-73
2023/06/23 03:02:59;;;;;;;7.90;7.20;;;19.00;99.90;;;;;;5035315;28;20810;-73
2023/06/23 03:05:26;;;;;;;6.40;5.80;;;19.00;99.90;;;;;;5053840;28;20417;-74
2023/06/23 03:07:52;;;;;;;6.63;6.03;;;19.10;99.90;;;;;;5054586;28;20412;-74
2023/06/23 03:10:19;;;;;;;7.37;6.67;;;19.30;99.90;;;;;;5053994;28;20456;-73
2023/06/23 03:12:48;;;;;;;7.63;7.03;;;19.30;99.90;;;;;;5053887;28;20177;-74
2023/06/23 03:15:14;;;;;;;7.87;7.17;;;19.40;99.90;;;;;;5053918;28;20425;-74
2023/06/23 03:17:41;;;;;;;8.33;7.53;;;19.40;99.90;;;;;;5072526;28;20416;-73
2023/06/23 03:20:16;;;;;;;8.07;7.37;;;19.20;99.90;;;;;;5074477;28;20867;-74
2023/06/23 03:23:07;;;;;;;7.80;7.00;;;19.30;99.90;;;;;;5073982;28;20388;-73
2023/06/23 03:25:33;;;;;;;8.40;7.50;;;19.30;99.90;;;;;;5072920;28;20427;-72
2023/06/23 03:28:02;;;;;;;8.97;8.17;;;19.40;99.90;;;;;;5073257;28;20483;-72
2023/06/23 03:30:40;;;;;;;9.50;8.60;;;19.40;99.90;;;;;;5073236;28;20805;-73
2023/06/23 03:33:32;;;;;;;9.40;8.50;;;19.40;99.90;;;;;;5072928;28;20385;-73
2023/06/23 03:36:04;;;;;;;9.40;8.53;;;19.30;99.90;;;;;;5054521;28;20439;-73
2023/06/23 03:38:35;;;;;;;9.70;8.80;;;19.30;99.90;;;;;;5072336;28;20411;-73
2023/06/23 03:41:05;;;;;;;8.70;7.93;;;19.40;99.90;;;;;;5072502;28;20930;-73
2023/06/23 03:43:50;;;;;;;8.83;8.03;;;19.40;99.90;;;;;;5072708;28;20458;-72
2023/06/23 03:46:21;;;;;;;9.30;8.50;;;19.40;99.90;;;;;;5070650;28;20448;-72
2023/06/23 03:48:51;;;;;;;9.93;9.00;;;19.40;99.90;;;;;;5072491;28;20409;-71
2023/06/23 03:51:18;;;;;;;10.07;9.07;;;19.40;99.90;;;;;;5072346;28;20404;-73
2023/06/23 03:53:46;;;;;;;10.53;9.53;;;19.50;99.90;;;;;;5074411;28;20411;-72
2023/06/23 03:56:14;;;;;;;12.17;9.77;;;19.40;99.90;;;;;;5076480;28;20498;-73
2023/06/23 03:58:41;;;;;;;10.23;9.10;;;19.50;99.90;;;;;;5077088;28;20902;-72
2023/06/23 04:01:07;;;;;;;11.03;9.83;;;19.50;99.90;;;;;;5076144;28;20412;-72
2023/06/23 04:03:36;;;;;;;11.17;10.07;;;19.70;99.90;;;;;;5076205;28;20402;-73
2023/06/23 04:06:06;;;;;;;10.17;9.37;;;19.70;99.90;;;;;;5076122;28;20597;-73
2023/06/23 04:08:34;;;;;;;10.53;9.53;;;19.70;99.90;;;;;;5051551;28;20412;-72
2023/06/23 04:11:01;;;;;;;11.57;10.57;;;19.70;99.90;;;;;;5036547;28;20805;-72
2023/06/23 04:13:29;;;;;;;11.90;10.70;;;19.60;99.90;;;;;;5035984;28;20758;-72
2023/06/23 04:15:57;;;;;;;10.47;9.37;;;19.50;99.90;;;;;;5037013;28;20417;-72
2023/06/23 04:18:26;;;;;;;10.80;9.90;;;19.70;99.90;;;;;;5075938;28;20504;-72
2023/06/23 04:20:55;;;;;;;10.63;9.73;;;19.50;99.90;;;;;;5075827;28;20440;-71
2023/06/23 04:23:22;;;;;;;11.30;10.20;;;19.60;99.90;;;;;;5056731;28;20424;-73
2023/06/23 04:25:50;;;;;;;11.53;10.40;;;19.60;99.90;;;;;;5053734;28;20511;-72
2023/06/23 04:28:19;;;;;;;13.60;11.10;;;19.70;99.90;;;;;;5035751;28;20417;-72
2023/06/23 04:30:46;;;;;;;11.00;10.00;;;19.70;99.90;;;;;;5035508;28;20799;-73
2023/06/23 04:33:11;;;;;;;10.80;9.80;;;19.70;99.90;;;;;;5035943;28;20468;-73
2023/06/23 04:35:37;;;;;;;12.70;11.60;;;19.60;99.90;;;;;;5035725;28;20861;-73
2023/06/23 04:38:09;;;;;;;12.07;10.87;;;19.60;99.90;;;;;;5035843;28;20186;-73
2023/06/23 04:40:39;;;;;;;12.07;10.97;;;19.60;99.90;;;;;;5035970;28;20598;-73
2023/06/23 04:43:14;;;;;;;12.03;10.93;;;19.60;99.90;;;;;;5035828;28;20394;-73
2023/06/23 04:46:07;;;;;;;12.40;11.20;;;19.70;99.90;;;;;;5017745;28;20456;-72
2023/06/23 04:48:37;;;;;;;13.20;11.90;;;19.70;99.90;;;;;;5030395;28;20921;-72
2023/06/23 04:51:06;;;;;;;13.07;11.77;;;19.80;99.90;;;;;;5039792;28;20401;-72
2023/06/23 04:53:38;;;;;;;12.57;11.40;;;19.90;99.90;;;;;;5055936;28;20733;-72
2023/06/23 04:56:07;;;;;;;11.23;10.23;;;19.80;99.90;;;;;;5055774;28;20425;-72
2023/06/23 04:58:36;;;;;;;14.57;13.27;;;19.90;99.90;;;;;;5038423;28;20405;-72
2023/06/23 05:01:03;;;;;;;13.07;11.87;;;20.00;99.90;;;;;;5055914;28;20441;-72
2023/06/23 05:03:31;;;;;;;14.60;13.30;;;20.00;99.90;;;;;;5056172;28;20426;-72
2023/06/23 05:05:58;;;;;;;13.57;12.13;;;20.00;99.90;;;;;;5055044;28;20428;-72
2023/06/23 05:08:26;;;;;;;12.30;11.10;;;20.00;99.90;;;;;;5055721;28;20398;-72
2023/06/23 05:10:53;;;;;;;15.10;13.70;;;20.00;99.90;;;;;;5056433;28;20413;-72
2023/06/23 05:13:20;;;;;;;13.60;12.50;;;19.90;99.90;;;;;;5055573;28;20938;-72
2023/06/23 05:15:49;;;;;;;15.00;13.57;;;20.00;99.90;;;;;;5055218;28;20425;-72
2023/06/23 05:18:17;;;;;;;14.30;12.90;;;19.80;99.90;;;;;;5035622;28;20410;-73
2023/06/23 05:20:46;;;;;;;14.37;13.17;;;19.90;99.90;;;;;;5017857;28;20481;-72
2023/06/23 05:23:14;;;;;;;16.80;15.10;;;20.00;99.90;;;;;;5035895;28;20406;-73
2023/06/23 05:25:41;;;;;;;15.87;14.37;;;19.90;99.90;;;;;;5017881;28;20418;-72
2023/06/23 05:28:08;;;;;;;16.77;15.13;;;20.00;99.90;;;;;;5036430;28;20398;-71
2023/06/23 05:30:36;;;;;;;16.83;15.13;;;20.00;99.90;;;;;;5036736;28;20409;-74
2023/06/23 05:33:07;;;;;;;16.33;14.83;;;20.00;99.90;;;;;;5035341;28;20417;-73
2023/06/23 05:35:33;;;;;;;20.50;18.40;;;20.00;99.90;;;;;;5035332;28;20425;-73
2023/06/23 05:38:01;;;;;;;17.50;15.97;;;20.00;99.90;;;;;;5035295;28;20394;-74
2023/06/23 05:40:27;;;;;;;18.97;17.17;;;20.00;99.90;;;;;;5034924;28;20811;-72
2023/06/23 05:42:52;;;;;;;18.70;16.70;;;19.90;99.90;;;;;;5035352;28;20403;-74
2023/06/23 05:45:18;;;;;;;20.10;18.10;;;19.90;99.90;;;;;;5058989;22;20203;-71
2023/06/23 05:48:01;;;;;;;20.57;18.53;;;20.00;99.90;;;;;;5091716;28;20612;-71
2023/06/23 05:50:31;;;;;;;20.87;18.87;;;20.00;99.90;;;;;;5094040;28;20413;-73
2023/06/23 05:53:00;;;;;;;22.27;20.07;;;20.00;99.90;;;;;;5094080;28;20913;-71
2023/06/23 05:55:28;;;;;;;20.40;18.33;;;19.90;99.90;;;;;;5093526;28;20403;-74
2023/06/23 05:57:59;;;;;;;21.63;19.33;;;20.00;99.90;;;;;;5093804;28;20407;-72
2023/06/23 06:00:30;;;;;;;21.60;19.50;;;19.90;99.90;;;;;;5094086;28;20502;-71
2023/06/23 06:02:58;;;;;;;19.30;17.30;;;20.00;99.90;;;;;;5093465;28;20383;-72
2023/06/23 06:05:25;;;;;;;20.70;18.60;;;20.10;99.90;;;;;;5094202;28;20827;-71
2023/06/23 06:07:51;;;;;;;20.27;18.23;;;20.20;99.90;;;;;;5093863;28;20423;-72
2023/06/23 06:10:18;;;;;;;19.97;17.97;;;20.30;99.90;;;;;;5091834;28;20476;-71
2023/06/23 06:12:45;;;;;;;21.40;19.10;;;20.30;99.90;;;;;;5093282;28;20417;-72
2023/06/23 06:15:13;;;;;;;22.40;20.10;;;20.40;99.90;;;;;;5093436;28;20490;-71
2023/06/23 06:17:40;;;;;;;19.53;17.63;;;20.50;99.90;;;;;;5073915;28;20457;-72
2023/06/23 06:20:08;;;;;;;21.17;19.17;;;20.50;99.90;;;;;;5052946;28;20453;-71
2023/06/23 06:22:36;;;;;;;19.63;17.63;;;20.50;99.90;;;;;;5062807;28;20443;-71
2023/06/23 06:25:04;;;;;;;20.03;18.10;;;20.60;99.90;;;;;;5072466;28;20450;-71
2023/06/23 06:27:33;;;;;;;17.13;15.40;;;20.60;99.90;;;;;;5072741;28;20794;-72
2023/06/23 06:30:00;;;;;;;20.43;18.33;;;20.70;99.90;;;;;;5072804;28;20408;-71
2023/06/23 06:32:29;;;;;;;18.40;16.53;;;20.70;99.90;;;;;;5072806;28;20412;-72
2023/06/23 06:34:57;;;;;;;19.00;17.20;;;20.80;99.90;;;;;;5071468;28;20443;-72
2023/06/23 06:37:25;;;;;;;20.63;18.53;;;20.90;99.90;;;;;;5072562;28;20416;-71
2023/06/23 06:39:51;;;;;;;20.70;18.60;;;20.90;99.90;;;;;;5072461;28;20459;-72
2023/06/23 06:42:17;;;;;;;19.20;16.93;;;21.00;99.90;;;;;;5072707;28;20411;-72
2023/06/23 06:44:43;;;;;;;18.57;16.67;;;20.90;99.90;;;;;;5072793;28;20722;-72
2023/06/23 06:47:11;;;;;;;18.60;16.80;;;21.00;99.90;;;;;;5071910;28;20537;-72
2023/06/23 06:49:39;;;;;;;19.03;17.07;;;21.10;99.90;;;;;;5073375;28;20659;-73
2023/06/23 06:52:06;;;;;;;18.33;16.33;;;21.00;99.90;;;;;;5074327;28;20903;-72
2023/06/23 06:54:33;;;;;;;19.70;17.77;;;21.00;99.90;;;;;;5074003;28;20396;-73
2023/06/23 06:56:58;;;;;;;17.20;15.60;;;20.90;99.90;;;;;;5073065;28;20473;-72
2023/06/23 06:59:24;;;;;;;19.63;17.73;;;20.80;99.90;;;;;;5072786;28;20439;-72
2023/06/23 07:01:50;;;;;;;19.37;17.37;;;20.90;99.90;;;;;;5072805;28;20162;-72
2023/06/23 07:04:16;;;;;;;18.03;16.33;;;20.90;99.90;;;;;;5072438;28;20173;-72
2023/06/23 07:06:41;;;;;;;21.13;19.10;;;21.00;99.90;;;;;;5072320;28;20231;-73
2023/06/23 07:09:07;;;;;;;19.73;18.00;;;21.00;99.90;;;;;;5072362;28;20421;-72
2023/06/23 07:11:35;;;;;;;20.67;18.73;;;20.90;99.90;;;;;;5072562;28;20173;-72
2023/06/23 07:14:03;;;;;;;19.70;17.90;;;20.80;99.90;;;;;;5072210;28;20162;-72
2023/06/23 07:16:33;;;;;;;19.30;17.43;;;20.90;99.90;;;;;;5071701;28;20432;-72
2023/06/23 07:19:00;;;;;;;18.37;16.43;;;21.10;99.90;;;;;;5070796;28;21001;-72
2023/06/23 07:21:26;;;;;;;17.63;16.03;;;21.10;99.90;;;;;;5070938;28;20756;-72
2023/06/23 07:23:53;;;;;;;16.90;15.20;;;21.20;99.90;;;;;;5071979;28;20772;-72
2023/06/23 07:26:20;;;;;;;19.27;17.47;;;21.40;99.90;;;;;;5071995;28;20452;-71
2023/06/23 07:28:46;;;;;;;20.10;15.57;;;21.10;99.90;;;;;;5077554;28;20395;-71
2023/06/23 07:31:12;;;;;;;16.63;14.93;;;21.00;99.90;;;;;;5078576;28;20877;-72
2023/06/23 07:33:40;;;;;;;19.73;17.47;;;21.10;99.90;;;;;;5079165;28;20496;-72
2023/06/23 07:36:07;;;;;;;18.30;16.50;;;21.10;99.90;;;;;;5079290;28;20516;-72
2023/06/23 07:38:34;;;;;;;19.07;16.10;;;20.90;99.90;;;;;;5079978;28;20498;-72
2023/06/23 07:41:01;;;;;;;16.90;15.40;;;20.80;99.90;;;;;;5078897;28;20447;-72
2023/06/23 07:43:27;;;;;;;17.23;14.67;;;21.10;99.90;;;;;;5078087;28;20410;-71
2023/06/23 07:45:54;;;;;;;17.00;14.63;;;21.20;99.90;;;;;;5078416;28;20432;-71
2023/06/23 07:48:20;;;;;;;16.60;14.90;;;21.20;99.90;;;;;;5078402;28;20408;-72
2023/06/23 07:50:47;;;;;;;14.70;13.13;;;21.30;99.90;;;;;;5078458;28;20417;-72
2023/06/23 07:53:13;;;;;;;15.20;13.60;;;21.30;99.90;;;;;;5079011;28;20571;-71
2023/06/23 07:55:39;;;;;;;13.90;12.33;;;21.50;99.90;;;;;;5078454;28;20427;-72
2023/06/23 07:58:04;;;;;;;14.10;12.70;;;21.90;99.90;;;;;;5078400;28;20779;-72
2023/06/23 08:00:30;;;;;;;13.80;12.50;;;22.10;99.90;;;;;;5078495;28;20193;-72
2023/06/23 08:02:56;;;;;;;14.33;12.93;;;21.80;99.90;;;;;;5078405;28;20173;-72
2023/06/23 08:05:23;;;;;;;14.37;12.97;;;21.80;99.90;;;;;;5078860;28;20404;-72
2023/06/23 08:07:49;;;;;;;14.20;12.53;;;21.70;99.90;;;;;;5078456;28;20951;-72
2023/06/23 08:10:15;;;;;;;14.80;12.97;;;21.90;99.90;;;;;;5078168;28;20412;-71
2023/06/23 08:12:41;;;;;;;13.37;12.03;;;21.80;99.90;;;;;;5078553;28;20180;-72
2023/06/23 08:15:07;;;;;;;15.60;12.50;;;21.60;99.90;;;;;;5066884;28;20405;-71
2023/06/23 08:17:34;;;;;;;13.20;11.67;;;21.70;99.90;;;;;;5070675;28;20284;-71
2023/06/23 08:20:00;;;;;;;12.57;11.27;;;21.50;99.90;;;;;;5078234;28;20542;-72
2023/06/23 08:22:26;;;;;;;11.87;10.23;;;21.60;99.90;;;;;;5076587;28;20447;-72
2023/06/23 08:24:52;;;;;;;12.03;11.00;;;21.50;99.90;;;;;;5078141;28;20411;-72
2023/06/23 08:27:17;;;;;;;11.73;10.50;;;21.60;99.90;;;;;;5078162;28;20190;-71
2023/06/23 08:29:43;;;;;;;11.50;10.37;;;21.80;99.90;;;;;;5078492;28;20196;-71
2023/06/23 08:32:10;;;;;;;13.50;11.77;;;21.70;99.90;;;;;;5078205;28;20170;-72
2023/06/23 08:34:37;;;;;;;13.37;12.17;;;21.90;99.90;;;;;;5078799;28;20630;-72
2023/06/23 08:37:03;;;;;;;13.30;12.00;;;22.00;99.90;;;;;;5076800;28;20431;-72
2023/06/23 08:39:28;;;;;;;13.23;10.57;;;21.90;99.90;;;;;;5076590;28;20451;-71
2023/06/23 08:41:55;;;;;;;12.40;11.10;;;22.00;99.90;;;;;;5073500;28;20412;-72
2023/06/23 08:44:24;;;;;;;11.83;10.80;;;22.00;99.90;;;;;;5075252;28;20224;-72
2023/06/23 08:46:54;;;;;;;11.27;10.17;;;21.90;99.90;;;;;;5073764;28;20942;-72
2023/06/23 08:49:22;;;;;;;11.90;10.80;;;21.80;99.90;;;;;;5074629;28;20396;-71
2023/06/23 08:51:49;;;;;;;12.53;10.10;;;21.90;99.90;;;;;;5075288;28;20400;-71
2023/06/23 08:54:15;;;;;;;13.13;11.93;;;22.00;99.90;;;;;;5074695;28;20415;-71
2023/06/23 08:56:40;;;;;;;12.10;11.00;;;22.10;99.90;;;;;;5074924;28;20943;-71
2023/06/23 08:59:06;;;;;;;12.37;11.17;;;22.10;99.90;;;;;;5073170;28;20416;-70
2023/06/23 09:01:33;;;;;;;12.73;11.57;;;22.30;99.90;;;;;;5074508;28;20231;-71
2023/06/23 09:04:00;;;;;;;13.97;11.60;;;22.50;99.90;;;;;;5074874;28;20265;-71
2023/06/23 09:06:26;;;;;;;10.87;9.87;;;22.80;99.90;;;;;;5074405;28;20424;-71
2023/06/23 09:08:51;;;;;;;11.20;10.30;;;23.20;99.90;;;;;;5073195;28;20408;-72
2023/06/23 09:11:17;;;;;;;11.60;10.53;;;23.20;99.90;;;;;;5074067;28;20226;-71
2023/06/23 09:13:45;;;;;;;11.60;10.40;;;23.10;99.90;;;;;;5074730;28;20194;-72
2023/06/23 09:16:12;;;;;;;11.70;10.60;;;23.20;99.90;;;;;;5074020;28;20177;-72
2023/06/23 09:18:41;;;;;;;13.63;12.20;;;23.00;99.90;;;;;;5074453;28;20431;-71
2023/06/23 09:21:07;;;;;;;11.37;10.37;;;22.80;99.90;;;;;;5074770;28;20475;-71
2023/06/23 09:23:34;;;;;;;11.60;10.67;;;22.80;99.90;;;;;;5074464;28;20497;-72
2023/06/23 09:26:03;;;;;;;12.60;11.40;;;22.70;99.90;;;;;;5073902;28;20765;-72
2023/06/23 09:28:36;;;;;;;11.63;10.60;;;22.80;99.90;;;;;;5074035;28;20426;-73
2023/06/23 09:31:13;;;;;;;11.20;10.20;;;23.00;99.90;;;;;;5074131;28;20423;-72
2023/06/23 09:34:05;;;;;;;11.07;10.00;;;23.00;99.90;;;;;;5073896;28;20408;-72
2023/06/23 09:36:36;;;;;;;12.23;10.73;;;23.30;99.90;;;;;;5066966;28;20490;-71
2023/06/23 09:39:03;;;;;;;9.70;8.80;;;23.40;99.90;;;;;;5073667;28;20408;-71
2023/06/23 09:41:33;;;;;;;9.47;8.57;;;23.60;99.90;;;;;;5073806;28;20429;-73
2023/06/23 09:43:59;;;;;;;10.60;9.60;;;23.70;99.90;;;;;;5073748;28;20499;-73
2023/06/23 09:46:27;;;;;;;10.80;9.80;;;23.40;99.90;;;;;;5071175;28;20448;-71
2023/06/23 09:48:53;;;;;;;9.67;8.87;;;23.40;99.90;;;;;;5073891;28;20454;-71
2023/06/23 09:51:19;;;;;;;7.97;7.27;;;23.50;99.90;;;;;;5073175;28;20453;-72
2023/06/23 09:53:45;;;;;;;7.47;6.77;;;23.40;99.90;;;;;;5073765;28;20401;-71
2023/06/23 09:56:16;;;;;;;7.50;6.80;;;23.50;99.90;;;;;;5073215;28;20277;-71
2023/06/23 09:58:43;;;;;;;9.07;7.10;;;23.50;99.90;;;;;;5073639;28;20479;-72
2023/06/23 10:01:10;;;;;;;8.07;7.33;;;23.80;99.90;;;;;;5073662;28;20828;-71
2023/06/23 10:03:43;;;;;;;8.57;7.77;;;23.50;99.90;;;;;;5073980;28;20400;-71
2023/06/23 10:06:19;;;;;;;7.90;7.20;;;23.80;99.90;;;;;;5072255;28;21023;-71
2023/06/23 10:08:45;;;;;;;9.40;8.50;;;24.10;99.90;;;;;;5074326;28;20380;-73
2023/06/23 10:11:10;;;;;;;7.60;6.90;;;23.90;99.90;;;;;;5071517;28;20400;-72
2023/06/23 10:13:36;;;;;;;7.30;6.50;;;23.90;99.90;;;;;;5059141;28;20721;-72
2023/06/23 10:16:02;;;;;;;7.43;6.73;;;24.10;99.90;;;;;;5073776;28;20736;-72
2023/06/23 10:18:28;;;;;;;8.67;7.87;;;24.20;99.90;;;;;;5073482;28;20178;-73
2023/06/23 10:20:54;;;;;;;7.87;7.07;;;24.10;99.90;;;;;;5072197;28;20605;-71
2023/06/23 10:23:21;;;;;;;8.30;7.53;;;24.20;99.90;;;;;;5072369;28;20902;-72
2023/06/23 10:25:53;;;;;;;8.97;7.40;;;24.20;99.90;;;;;;5073086;28;20440;-72
2023/06/23 10:28:20;;;;;;;9.00;7.20;;;24.40;99.90;;;;;;5073416;28;20385;-72
2023/06/23 10:30:46;;;;;;;7.50;6.77;;;24.50;99.90;;;;;;5073042;28;20755;-71
2023/06/23 10:33:18;;;;;;;8.80;7.93;;;24.70;99.80;;;;;;5072925;28;20495;-71
2023/06/23 10:35:46;;;;;;;7.87;7.20;;;24.30;99.90;;;;;;5071956;28;20660;-72
2023/06/23 10:38:17;;;;;;;8.97;8.17;;;24.30;99.90;;;;;;5073796;28;20474;-72
2023/06/23 10:40:48;;;;;;;8.33;7.63;;;23.80;99.90;;;;;;5072564;28;20447;-73
2023/06/23 10:43:15;;;;;;;8.07;7.30;;;23.60;99.90;;;;;;5072619;28;20440;-72
2023/06/23 10:45:42;;;;;;;7.30;6.70;;;23.40;99.90;;;;;;5072863;28;20486;-72
2023/06/23 10:48:08;;;;;;;8.27;7.47;;;23.40;99.90;;;;;;5071750;28;20412;-71
2023/06/23 10:50:34;;;;;;;7.97;7.23;;;23.40;99.90;;;;;;5072649;28;20400;-71
2023/06/23 10:53:17;;;;;;;8.40;7.40;;;23.60;99.90;;;;;;5072820;28;20178;-72
2023/06/23 10:55:47;;;;;;;8.93;8.03;;;23.80;99.90;;;;;;5071089;28;20431;-72
2023/06/23 10:58:18;;;;;;;8.10;7.40;;;23.90;99.90;;;;;;5073000;28;20407;-71
2023/06/23 11:00:53;;;;;;;7.43;6.73;;;23.90;99.90;;;;;;5072359;28;20958;-71
2023/06/23 11:03:28;;;;;;;7.77;7.07;;;24.20;99.90;;;;;;5071731;28;20373;-71
2023/06/23 11:05:55;;;;;;;6.17;5.57;;;24.70;99.90;;;;;;5070966;28;20425;-72
2023/06/23 11:08:28;;;;;;;7.40;6.80;;;25.10;98.60;;;;;;5072075;28;20955;-71
2023/06/23 11:11:11;;;;;;;7.80;7.10;;;25.00;98.20;;;;;;5072282;28;20446;-70
2023/06/23 11:13:51;;;;;;;8.00;6.50;;;24.80;98.90;;;;;;5072253;28;20502;-71
2023/06/23 11:16:25;;;;;;;7.93;7.17;;;24.30;99.30;;;;;;5072285;28;20423;-72
2023/06/23 11:18:53;;;;;;;8.10;7.40;;;24.20;99.60;;;;;;5072719;28;20379;-71
2023/06/23 11:21:28;;;;;;;6.83;6.23;;;24.10;99.90;;;;;;5072030;28;20794;-72
2023/06/23 11:24:12;;;;;;;7.27;6.60;;;24.60;99.60;;;;;;5071538;28;20427;-72
2023/06/23 11:27:03;;;;;;;8.10;7.40;;;24.60;99.30;;;;;;5071775;28;20419;-72
2023/06/23 11:29:31;;;;;;;9.83;6.73;;;24.80;99.10;;;;;;5072632;28;20385;-71
2023/06/23 11:32:08;;;;;;;7.63;6.10;;;25.00;98.70;;;;;;5070429;28;20404;-71
2023/06/23 11:34:57;;;;;;;8.43;6.40;;;25.70;97.70;;;;;;5072009;28;20412;-72
2023/06/23 11:37:31;;;;;;;7.60;5.40;;;26.00;95.30;;;;;;5072307;28;20420;-71
2023/06/23 11:39:57;;;;;;;6.13;5.53;;;25.80;95.20;;;;;;5071793;28;20513;-70
2023/06/23 11:42:23;;;;;;;7.40;6.00;;;26.40;95.60;;;;;;5071864;28;20401;-72
2023/06/23 11:44:49;;;;;;;7.53;6.83;;;27.80;94.10;;;;;;5071832;28;20503;-72
2023/06/23 11:47:15;;;;;;;8.17;6.37;;;28.30;92.80;;;;;;5092470;22;20515;-73
2023/06/23 11:49:41;;;;;;;6.83;6.17;;;27.60;92.80;;;;;;5072945;28;20407;-73
2023/06/23 11:52:07;;;;;;;7.13;6.50;;;27.50;93.80;;;;;;5073702;28;20166;-74
2023/06/23 11:54:37;;;;;;;5.90;5.30;;;28.20;93.00;;;;;;5073364;28;20462;-73
2023/06/23 11:57:03;;;;;;;7.40;6.70;;;28.60;90.80;;;;;;5072911;28;20420;-73
2023/06/23 11:59:39;;;;;;;7.17;6.53;;;28.30;92.10;;;;;;5073261;28;20442;-73
2023/06/23 12:02:06;;;;;;;7.13;6.43;;;27.90;92.40;;;;;;5064523;28;20402;-73
2023/06/23 12:04:32;;;;;;;6.90;6.30;;;27.20;92.70;;;;;;5052867;28;20409;-73
2023/06/23 12:06:59;;;;;;;8.63;6.80;;;26.20;94.30;;;;;;5052886;28;20444;-73
2023/06/23 12:09:29;;;;;;;6.23;5.70;;;25.60;95.50;;;;;;5052617;28;20405;-73
2023/06/23 12:11:55;;;;;;;9.13;5.73;;;26.00;94.80;;;;;;5052760;28;20438;-73
2023/06/23 12:14:31;;;;;;;7.20;5.47;;;26.50;93.80;;;;;;5055040;28;20409;-73
2023/06/23 12:17:10;;;;;;;6.30;5.80;;;27.80;92.80;;;;;;5063588;28;21032;-73
2023/06/23 12:19:37;;;;;;;6.73;6.07;;;28.40;91.30;;;;;;5057538;28;20551;-73
2023/06/23 12:22:12;;;;;;;6.50;6.00;;;29.40;90.30;;;;;;5057808;28;20421;-74
2023/06/23 12:24:38;;;;;;;6.73;5.57;;;30.00;87.10;;;;;;5058304;28;20409;-72
2023/06/23 12:27:04;;;;;;;5.57;5.07;;;29.20;87.70;;;;;;5055312;28;20843;-74
2023/06/23 12:29:31;;;;;;;5.20;4.70;;;27.90;89.40;;;;;;5054413;28;20418;-73
2023/06/23 12:31:58;;;;;;;6.93;4.50;;;26.90;89.90;;;;;;5040483;28;20438;-72
2023/06/23 12:34:34;;;;;;;7.17;5.90;;;26.00;91.40;;;;;;5037473;28;20438;-73
2023/06/23 12:37:08;;;;;;;6.53;6.00;;;25.30;93.00;;;;;;5036050;28;21006;-72
2023/06/23 12:39:34;;;;;;;7.23;6.53;;;25.10;94.20;;;;;;5035441;28;20451;-73
2023/06/23 12:42:00;;;;;;;9.60;6.33;;;24.80;94.60;;;;;;5040362;28;20488;-72
2023/06/23 12:44:27;;;;;;;7.43;5.87;;;25.20;95.00;;;;;;5046713;28;20600;-73
2023/06/23 12:46:54;;;;;;;6.43;5.83;;;26.80;92.60;;;;;;5045823;28;20473;-73